logo
App data

Space Hotel

One of your ship's engines breaks down while on a trade route. You are forced to make a landing in the nearest star system Merope, constellation Pleiades. Your task is to find a way to the main hangar and escape on the ship of those who remained there forever.
Store | Hub | SteamDB
Developer: NHLislive Publisher: Man Hockey
Genre: Indie
Languages: English
Tags: Indie (21), Horror (13), Stealth (12)
Category: Single-player, Steam Trading Cards
Release date: Jan 4, 2017
Price: $1.99
Owners: 0 .. 20,000
Followers: 244
Playtime total: 03:41 (average) 04:11 (median)

Steam Spy is still in beta, so expect major bugs.

Owners data:

Access restricted.

This feature is only available to users with special access rights. Sorry.

If you want to proceed, you need to register or log in first and then back Steam Spy on Patreon. Look for Indie or Pro pledge.

Don't forget to use the same email as on Steam Spy!

Audience in 2 weeks:

Access restricted.

This feature is only available to users with special access rights. Sorry.

If you want to proceed, you need to register or log in first and then back Steam Spy on Patreon. Look for Indie or Pro pledge.

Don't forget to use the same email as on Steam Spy!

Peak daily concurrent players:

CCU data courtesy of SteamDB. Used with permission.

Hourly concurrent players:

YouTube:

The views data is based on top 50 videos uploaded last week. Actual number of views might be more than the number shown.

The displayed number of videos uploaded yesterday is limited to 50, so if there were more videos uploaded, the number will still show 50.

If the game has commonly used word as its name (like "FEAR" or "Volume") its number of Youtube views might be wrong.

Games similar to this one:

# Game Release date
Price
Score rank
(Userscore / Metascore)
Owners
Players
Playtime (Median)
1 Night Blights Apr 15, 2016 $4.99100% (100%)0 .. 20,0000%00:00 (00:00)
2 Carrie's Order Up! Sep 13, 2016 $2.9999% (98%)0 .. 20,0000%00:00 (00:00)
3 Luxor Evolved Mar 1, 2012 $9.9997% (97%)50,000 .. 100,0000%00:00 (00:00)
4 Hustle Cat Mar 16, 2016 $19.9995% (96%)20,000 .. 50,0000%00:00 (00:00)
5 A Good Snowman Is Hard To Build Feb 25, 2015 $9.9993% (95%)20,000 .. 50,0000%00:00 (00:00)
6 Beat Da Beat Mar 10, 2016 $1.9993% (95%)0 .. 20,0000%00:00 (00:00)
7 Chip's Challenge 2 May 28, 2015 $4.9990% (94%)20,000 .. 50,0000%00:00 (00:00)
8 Tennis in the Face Nov 18, 2015 $4.9987% (93%)0 .. 20,0000%00:00 (00:00)
9 Swapperoo Dec 18, 2015 $1.24N/A (N/A)0 .. 20,0000%00:00 (00:00)
10 [the Sequence] Mar 30, 2016 $1.9987% (93%)0 .. 20,0000%00:00 (00:00)
11 12 Labours of Hercules Mar 23, 2015 $1.9487% (93%)100,000 .. 200,0000%00:00 (00:00)
12 Girls Like Robots Feb 14, 2014 $6.99N/A (N/A)100,000 .. 200,0000.4%00:03 (00:01)
13 Grapple Mar 9, 2015 $6.9983% (92%)20,000 .. 50,0000%00:00 (00:00)
14 SquareCells Dec 7, 2015 $2.9983% (92%)20,000 .. 50,0000%00:00 (00:00)
15 Earthtongue Apr 27, 2015 $4.9980% (91%)0 .. 20,0002.7%02:59 (00:59)
16 The Jackbox Party Pack Nov 26, 2014 $24.9980% (91%)200,000 .. 500,0006.22%01:12 (02:02)
17 Tribloos 2 Jan 30, 2014 $4.9980% (91%)100,000 .. 200,0000.47%03:13 (02:08)
18 Griptape Backbone May 5, 2017 Free80% (91%)0 .. 20,0003.33%00:07 (00:02)
19 Frog Climbers Oct 6, 2016 $6.9976% (90%)20,000 .. 50,0000%00:00 (00:00)
20 Vampires: Guide Them to Safety! Oct 22, 2014 $4.99N/A (N/A)0 .. 20,0000%00:00 (00:00)
21 Koala Kids Jun 22, 2015 $1.9976% (90%)20,000 .. 50,0000%00:00 (00:00)
22 Think To Die 3 Mar 27, 2017 $4.99N/A (N/A)0 .. 20,0000%00:00 (00:00)
23 The Reject Demon: Toko Chapter 0 — Prelude May 9, 2015 $4.9973% (89%)0 .. 20,0000%00:00 (00:00)
24 12 Labours of Hercules IV: Mother Nature (Platinum Edition) Dec 25, 2015 $2.9973% (89%)20,000 .. 50,0000%00:00 (00:00)
25 On Rusty Trails Jun 13, 2016 $12.9973% (89%/77%)50,000 .. 100,0000.62%03:07 (01:02)
26 12 Labours of Hercules V: Kids of Hellas (Platinum Edition) Jun 17, 2016 $2.9973% (89%)20,000 .. 50,0000%00:00 (00:00)
27 Without Within 2 Nov 9, 2015 $2.9973% (89%)0 .. 20,0000%00:00 (00:00)
28 This Starry Midnight We Make Jun 1, 2015 $9.99N/A (N/A)0 .. 20,0000%00:00 (00:00)
29 Forgotten, Not Lost - A Kinetic Novel Apr 2, 2016 $1.9973% (89%)50,000 .. 100,00013.82%04:14 (04:34)
30 Clock Simulator Jul 20, 2016 $0.9973% (89%)20,000 .. 50,0001.23%00:36 (00:12)
31 Thrillville: Off the Rails Jul 8, 2009 $9.9971% (88%/70%)20,000 .. 50,0000%00:00 (00:00)
32 Recursion Deluxe Feb 12, 2016 $4.9971% (88%)0 .. 20,0000%00:00 (00:00)
33 In Between Aug 21, 2015 $11.9971% (88%/68%)50,000 .. 100,0000%00:00 (00:00)
34 Bob Was Hungry Aug 19, 2015 $9.9971% (88%)20,000 .. 50,0000%00:00 (00:00)
35 Asphyxia Aug 4, 2015 $5.9968% (87%)20,000 .. 50,0000%00:00 (00:00)
36 Cursed Sight Aug 3, 2015 $2.9968% (87%)0 .. 20,0000%00:00 (00:00)
37 Loot Hound Nov 17, 2015 $4.9968% (87%)0 .. 20,0000%00:00 (00:00)
38 Darkarta: A Broken Heart's Quest Collector's Edition Mar 8, 2017 $5.9965% (86%)20,000 .. 50,0000%00:00 (00:00)
39 Oozi: Earth Adventure Dec 5, 2013 $0.7465% (86%/66%)50,000 .. 100,0000%00:00 (00:00)
40 Sophie's Curse Mar 16, 2016 $4.9965% (86%)50,000 .. 100,0001.16%04:44 (03:09)
41 Army of Pixels Oct 29, 2015 $4.99N/A (N/A)0 .. 20,0000%00:00 (00:00)
42 Anode Oct 5, 2015 $3.9965% (86%)0 .. 20,0002.44%01:37 (00:32)
43 Magma Tsunami Jun 1, 2016 $0.9963% (85%)100,000 .. 200,0000%00:00 (00:00)
44 Sentinel 4: Dark Star Aug 13, 2015 $6.99N/A (N/A)0 .. 20,0000%00:00 (00:00)
45 Alpha Runner Sep 2, 2015 $0.4963% (85%)50,000 .. 100,0000.72%00:35 (00:18)
46 BAD END Nov 25, 2015 $1.9963% (85%)0 .. 20,0000%00:00 (00:00)
47 Dead Man's Draw Feb 6, 2014 $6.9963% (85%)20,000 .. 50,0000%00:00 (00:00)
48 Psycho Starship Rampage Sep 28, 2015 $9.9963% (85%)0 .. 20,0000%00:00 (00:00)
49 RePete Nov 1, 2015 $1.99N/A (N/A)0 .. 20,0000%00:00 (00:00)
50 Governor of Poker 2 - Premium Edition Oct 11, 2010 $14.9960% (84%)20,000 .. 50,0000%00:00 (00:00)
51 Steam and Metal Feb 9, 2015 $4.99N/A (N/A)0 .. 20,0001.61%01:45 (00:35)
52 Gridworld Dec 29, 2015 $0.9957% (83%)0 .. 20,0000%00:00 (00:00)
53 Collisions Jul 28, 2015 $3.9957% (83%)20,000 .. 50,0000%00:00 (00:00)
54 Job the Leprechaun Jul 31, 2015 $0.9957% (83%)20,000 .. 50,0000%00:00 (00:00)
55 Cyto Jul 10, 2014 $3.99N/A (N/A)20,000 .. 50,0000%00:00 (00:00)
56 Cute Things Dying Violently Sep 2, 2015 $2.99N/A (N/A)0 .. 20,0000%00:00 (00:00)
57 Stay Alight Mar 2, 2015 $3.9953% (81%)20,000 .. 50,0000%00:00 (00:00)
58 Space Drifters 2D Mar 28, 2016 $0.99N/A (N/A)20,000 .. 50,0000%00:00 (00:00)
59 Egg Returns Home May 5, 2015 $1.9950% (80%)20,000 .. 50,0000%00:00 (00:00)
60 Archimedes Oct 6, 2016 $2.9950% (80%)100,000 .. 200,0000%00:00 (00:00)
61 Star Sky - ブルームーン Oct 23, 2015 $3.9948% (79%)0 .. 20,0000%00:00 (00:00)
62 Optika Aug 26, 2016 $4.9948% (79%)20,000 .. 50,0000%00:00 (00:00)
63 Air Missions: HIND Mar 21, 2016 $16.9948% (79%)0 .. 20,0000%00:00 (00:00)
64 The Last NightMary - A Lenda do Cabeça de Cuia Nov 2, 2015 $0.5148% (79%)50,000 .. 100,0000%00:00 (00:00)
65 GamersGoMakers Aug 8, 2014 $9.9948% (79%)0 .. 20,0000%00:00 (00:00)
66 Dungeon Painter Studio Feb 26, 2017 $14.9948% (79%)20,000 .. 50,00013.64%00:21 (00:17)
67 Farm for your Life Jun 16, 2014 $9.9946% (78%)20,000 .. 50,0000%00:00 (00:00)
68 Fate Tectonics Sep 9, 2015 $9.9946% (78%)0 .. 20,0003.23%02:01 (01:29)
69 Neon Prism Nov 18, 2016 $4.9946% (78%)50,000 .. 100,0000.29%00:01 (00:00)
70 Terraform May 8, 2015 $2.99N/A (N/A)0 .. 20,0000%00:00 (00:00)
71 Particulars Nov 19, 2014 $5.99N/A (N/A/74%)20,000 .. 50,0000%00:00 (00:00)
72 Beeftacular Aug 26, 2016 $2.9946% (78%)0 .. 20,0000%00:00 (00:00)
73 hackmud Sep 22, 2016 $19.9946% (78%)20,000 .. 50,0000%00:00 (00:00)
74 The Survey Oct 27, 2016 $4.9944% (77%)0 .. 20,0000%00:00 (00:00)
75 Paranormal State: Poison Spring Apr 9, 2014 $9.9944% (77%)20,000 .. 50,0000.88%01:02 (00:20)
76 SinaRun Oct 26, 2015 $2.9944% (77%)0 .. 20,0000%00:00 (00:00)
77 Rescue Team 5 Sep 30, 2015 $3.9942% (76%)20,000 .. 50,0000%00:00 (00:00)
78 Pixel Puzzles 2: Birds Feb 20, 2015 $9.9942% (76%)200,000 .. 500,0001.05%02:40 (04:24)
79 Where are my Internets? Dec 16, 2016 $2.9940% (75%)0 .. 20,0004.17%00:01 (00:00)
80 Western FPS Mar 13, 2017 $0.9940% (75%)100,000 .. 200,0000.2%05:33 (01:51)
81 The Deletion Jul 30, 2015 $1.9940% (75%)20,000 .. 50,0000%00:00 (00:00)
82 Kombine Oct 14, 2016 $0.9940% (75%)0 .. 20,0000%00:00 (00:00)
83 MOAI 2: Path to Another World Apr 11, 2015 $7.99N/A (N/A)0 .. 20,0000%00:00 (00:00)
84 GO AWAY, THERE'S KUMIS OVER THERE! Oct 28, 2016 $0.9937% (73%)50,000 .. 100,0000.38%03:09 (01:03)
85 Turbo Pug 3D Sep 20, 2016 $0.9937% (73%)200,000 .. 500,0003.26%06:44 (04:17)
86 Idle Evolution Apr 3, 2017 $4.9935% (72%)0 .. 20,0009.09%00:09 (00:03)
87 ConflictCraft Dec 8, 2016 $2.99N/A (N/A)20,000 .. 50,0002.22%04:16 (04:16)
88 Lift It Jan 20, 2017 $4.9935% (72%)20,000 .. 50,0000.44%07:34 (02:31)
89 Caravanserail Feb 26, 2016 $2.99N/A (N/A)0 .. 20,0000%00:00 (00:00)
90 Laserlife Sep 22, 2015 $14.9934% (71%)0 .. 20,0000%00:00 (00:00)
91 Axel & Pixel Oct 6, 2010 $4.99N/A (N/A)20,000 .. 50,0000%00:00 (00:00)
92 Zipple World Jan 19, 2016 $4.99N/A (N/A)0 .. 20,0000%00:00 (00:00)
93 Wanda - A Beautiful Apocalypse Jun 3, 2016 $1.9930% (69%)100,000 .. 200,0000%00:00 (00:00)
94 Sinister City Oct 20, 2014 $0.9929% (68%)100,000 .. 200,0000%00:00 (00:00)
95 Love in the Glen Jun 9, 2016 $5.99N/A (N/A)20,000 .. 50,0000%00:00 (00:00)
96 Totally Unbalanced Jul 29, 2016 $2.9929% (68%)0 .. 20,0000%00:00 (00:00)
97 Pester Jan 25, 2013 $0.9929% (68%)100,000 .. 200,0000.46%01:35 (01:02)
98 Mind Games Mar 4, 2016 $2.9927% (67%)0 .. 20,0000%00:00 (00:00)
99 1931: Scheherazade at the Library of Pergamum Mar 26, 2015 $14.9927% (67%)0 .. 20,0001.67%00:08 (00:02)
100 Alter World May 29, 2015 $1.9926% (66%)100,000 .. 200,0000.44%01:27 (00:57)
101 Fergus The Fly Feb 1, 2017 $0.9926% (66%)200,000 .. 500,0000.59%05:17 (03:55)
102 Broken Dreams Feb 19, 2016 $1.9926% (66%)200,000 .. 500,0000.37%04:33 (04:32)
103 Marble Duel Nov 12, 2015 $4.9926% (66%)50,000 .. 100,0000.83%05:33 (01:51)
104 One Last Chance Apr 7, 2016 $3.9925% (65%)20,000 .. 50,0001.1%00:02 (00:00)
105 Highborn Feb 19, 2013 $1.99N/A (N/A)0 .. 20,0000%00:00 (00:00)
106 XCavalypse Jun 6, 2016 $5.99N/A (N/A)0 .. 20,0006.25%01:44 (00:34)
107 Herding Dog Dec 25, 2015 $2.99N/A (N/A)0 .. 20,0000%00:00 (00:00)
108 Winexy Jan 13, 2017 $0.4921% (62%)20,000 .. 50,0000%00:00 (00:00)
109 Power of Love Jul 21, 2015 $0.4921% (62%)20,000 .. 50,0000.64%01:10 (00:23)
110 Goodnight Butcher Dec 18, 2015 $1.99N/A (N/A)20,000 .. 50,0000%00:00 (00:00)
111 Won't You Be My Laser? Sep 2, 2016 $0.99N/A (N/A)0 .. 20,0000%00:00 (00:00)
112 Football Blitz Jan 4, 2017 $3.99N/A (N/A)0 .. 20,0000%00:00 (00:00)
113 FBI MANIA Jan 31, 2017 $0.4919% (60%)100,000 .. 200,0000.64%05:34 (03:42)
114 Racecraft Mar 4, 2016 Free18% (59%)0 .. 20,0002%00:04 (00:01)
115 Star Chronicles: Delta Quadrant Jul 7, 2015 $0.4918% (59%)200,000 .. 500,0000.18%02:14 (01:29)
116 Dance Magic Feb 15, 2016 $9.99N/A (N/A)0 .. 20,0000%00:00 (00:00)
117 Wildlife Park 2 - Dino World Jul 17, 2014 $3.9917% (58%)20,000 .. 50,0009.09%00:21 (00:07)
118 Way of Gold and Steel Aug 17, 2015 $8.9916% (57%)0 .. 20,0000%00:00 (00:00)
119 Bunny & Piggy Dec 1, 2016 $0.9915% (56%)50,000 .. 100,0000.53%03:48 (01:16)
120 Bloop Reloaded Feb 6, 2015 $9.99N/A (N/A)100,000 .. 200,0000.4%00:47 (00:26)
121 Backgammon Blitz Nov 12, 2015 $3.9913% (54%)0 .. 20,0000%00:00 (00:00)
122 King's Guard TD Jun 8, 2016 $2.9913% (54%)100,000 .. 200,0000%00:00 (00:00)
123 Drizzlepath Mar 12, 2015 $2.9913% (54%)0 .. 20,0000%00:00 (00:00)
124 Reptilian Rebellion Aug 8, 2016 $0.9913% (53%)20,000 .. 50,0000%00:00 (00:00)
125 Quantum Rush Champions Dec 4, 2014 $9.9913% (53%)20,000 .. 50,0000.88%01:30 (00:30)
126 Sky to Fly: Soulless Leviathan Jul 22, 2016 $3.9913% (53%)0 .. 20,0000%00:00 (00:00)
127 Color Syndrome Jun 20, 2016 $0.9912% (52%)20,000 .. 50,0000%00:00 (00:00)
128 Rage Runner May 16, 2014 $4.99N/A (N/A)0 .. 20,0000%00:00 (00:00)
129 Astro Emporia Feb 2, 2015 $0.99N/A (N/A)20,000 .. 50,0000%00:00 (00:00)
130 Ninja Stealth 2 Jan 30, 2017 $0.999% (46%)20,000 .. 50,0000%00:00 (00:00)
131 Autumn Sep 23, 2014 $2.999% (46%)50,000 .. 100,0000.57%00:01 (00:00)
132 Melting Hearts: Our Love Will Grow 2 Apr 29, 2016 N/AN/A (N/A)20,000 .. 50,0000%00:00 (00:00)
133 iREC Jan 16, 2017 Free7% (43%)20,000 .. 50,0000%00:00 (00:00)
134 European Ship Simulator Nov 4, 2016 $4.995% (38%)20,000 .. 50,0000%00:00 (00:00)
135 Streets of Chaos Jan 28, 2015 $0.99N/A (N/A)100,000 .. 200,0000.2%02:31 (00:50)
136 Hide and Secret Treasure of the Ages Mar 15, 2007 $0.98N/A (N/A)0 .. 20,0000%00:00 (00:00)
137 Burst Mar 14, 2016 $1.99N/A (N/A)100,000 .. 200,0000%00:00 (00:00)
138 Industry Transporters Aug 31, 2015 $9.99N/A (N/A)0 .. 20,0000%00:00 (00:00)
139 Robot vs Birds Zombies Jun 1, 2013 $0.993% (31%)0 .. 20,0000%00:00 (00:00)
140 Labyrinth Simulator Sep 21, 2015 $4.993% (31%)0 .. 20,0001.92%01:07 (00:22)
141 Hyposphere May 5, 2016 $2.993% (27%)200,000 .. 500,0000.32%06:08 (04:05)
142 Cyber Team Manager Jan 8, 2016 $4.992% (20%)0 .. 20,0000%00:00 (00:00)
143 One way to exit Mar 12, 2016 $1.99N/A (N/A)200,000 .. 500,0000%00:00 (00:00)

Tags over time:

Access restricted.

This feature is only available to users with special access rights. Sorry.

If you want to proceed, you need to register or log in first and then back Steam Spy on Patreon. Look for Indie or Pro pledge.

Don't forget to use the same email as on Steam Spy!

Owners of this game also own:

Access restricted.

This feature is only available to users with special access rights. Sorry.

If you want to proceed, you need to register or log in first and then back Steam Spy on Patreon. Look for Indie or Pro pledge.

Don't forget to use the same email as on Steam Spy!

Playtime distribution:

Access restricted.

This feature is only available to users with special access rights. Sorry.

If you want to proceed, you need to register or log in first and then back Steam Spy on Patreon. Look for Indie or Pro pledge.

Don't forget to use the same email as on Steam Spy!

Playtime (2 weeks):

Access restricted.

This feature is only available to users with special access rights. Sorry.

If you want to proceed, you need to register or log in first and then back Steam Spy on Patreon. Look for Indie or Pro pledge.

Don't forget to use the same email as on Steam Spy!

User reviews:

Login required.

Please register or log in to see this information.